Time;durP1;ratioP1;P1;durP2;ratioP2;P2;SDS_P1;SDS_P2;PMS_P1;PMS_P2;Temp;Humidity;BMP_temperature;BMP_pressure;BME280_temperature;BME280_humidity;BME280_pressure;Samples;Min_cycle;Max_cycle;Signal;HPM_P1;HPM_P2
2021/10/21 00:01:08;;;;;;;7.10;6.40;;;14.70;99.90;;;;;;5030193;28;20183;-72
2021/10/21 00:03:35;;;;;;;7.97;6.33;;;14.40;99.90;;;;;;5028328;28;20659;-71
2021/10/21 00:06:01;;;;;;;6.67;5.60;;;14.60;99.90;;;;;;5026740;28;20504;-70
2021/10/21 00:08:27;;;;;;;7.70;6.77;;;14.80;99.90;;;;;;5025604;28;20539;-73
2021/10/21 00:10:53;;;;;;;7.67;6.90;;;14.40;99.90;;;;;;5029851;28;20434;-71
2021/10/21 00:13:20;;;;;;;7.90;7.20;;;14.40;99.90;;;;;;5031116;28;20793;-71
2021/10/21 00:15:45;;;;;;;8.43;7.40;;;14.50;99.90;;;;;;5017167;28;20191;-73
2021/10/21 00:18:11;;;;;;;8.10;7.20;;;14.70;99.90;;;;;;5027768;28;20437;-73
2021/10/21 00:20:36;;;;;;;7.27;6.67;;;14.30;99.90;;;;;;5030628;28;20189;-72
2021/10/21 00:23:02;;;;;;;7.33;6.63;;;14.20;99.90;;;;;;5031199;28;20244;-73
2021/10/21 00:25:28;;;;;;;8.00;7.30;;;14.10;99.90;;;;;;5027296;28;20732;-71
2021/10/21 00:27:53;;;;;;;8.97;8.07;;;14.40;99.90;;;;;;5025170;28;20195;-72
2021/10/21 00:30:19;;;;;;;9.07;7.90;;;14.20;99.90;;;;;;5030158;28;20735;-71
2021/10/21 00:32:44;;;;;;;9.83;8.70;;;14.20;99.90;;;;;;5027765;28;20192;-70
2021/10/21 00:35:11;;;;;;;8.10;7.20;;;14.20;99.90;;;;;;5029115;28;20179;-71
2021/10/21 00:37:37;;;;;;;10.23;8.03;;;14.40;99.90;;;;;;5028519;28;20607;-71
2021/10/21 00:40:04;;;;;;;8.43;7.60;;;14.30;99.90;;;;;;5031519;28;20520;-71
2021/10/21 00:42:29;;;;;;;8.67;7.80;;;14.10;99.90;;;;;;5023134;28;20435;-73
2021/10/21 00:44:55;;;;;;;8.63;7.83;;;14.40;99.90;;;;;;5030175;28;20426;-71
2021/10/21 00:47:21;;;;;;;8.90;8.00;;;14.10;99.90;;;;;;5014822;28;20438;-70
2021/10/21 00:49:47;;;;;;;8.87;7.97;;;14.00;99.90;;;;;;5026334;28;21075;-71
2021/10/21 00:52:13;;;;;;;8.30;7.43;;;14.30;99.90;;;;;;5015824;28;20254;-71
2021/10/21 00:54:40;;;;;;;8.40;7.60;;;14.10;99.90;;;;;;5022187;28;20443;-71
2021/10/21 00:57:08;;;;;;;10.83;7.97;;;14.20;99.90;;;;;;5018768;28;20442;-71
2021/10/21 00:59:35;;;;;;;8.80;7.67;;;14.20;99.90;;;;;;5021258;28;20438;-71
2021/10/21 01:02:01;;;;;;;8.17;7.30;;;14.50;99.90;;;;;;5024159;28;20446;-71
2021/10/21 01:04:27;;;;;;;8.27;7.47;;;14.40;99.90;;;;;;5031422;28;20803;-72
2021/10/21 01:06:53;;;;;;;9.23;7.37;;;14.10;99.90;;;;;;5029852;28;20235;-72
2021/10/21 01:09:18;;;;;;;8.40;7.33;;;14.20;99.90;;;;;;5027838;28;20692;-72
2021/10/21 01:11:44;;;;;;;9.43;7.57;;;14.40;99.90;;;;;;5030836;28;20525;-72
2021/10/21 01:14:10;;;;;;;9.20;8.30;;;14.50;99.90;;;;;;5026770;28;20195;-72
2021/10/21 01:16:39;;;;;;;8.93;7.83;;;14.40;99.90;;;;;;5021679;28;20616;-74
2021/10/21 01:19:16;;;;;;;11.50;7.90;;;14.30;99.90;;;;;;5018375;28;20252;-72
2021/10/21 01:21:47;;;;;;;11.77;10.67;;;14.10;99.90;;;;;;5021090;28;20468;-72
2021/10/21 01:24:13;;;;;;;10.97;9.83;;;14.50;99.90;;;;;;5013173;28;20449;-72
2021/10/21 01:26:38;;;;;;;11.73;9.00;;;14.40;99.90;;;;;;5012400;28;20442;-71
2021/10/21 01:29:04;;;;;;;9.07;8.17;;;14.40;99.90;;;;;;5019860;28;20231;-74
2021/10/21 01:31:30;;;;;;;9.27;8.37;;;14.20;99.90;;;;;;5028536;28;20212;-72
2021/10/21 01:33:55;;;;;;;9.00;8.10;;;14.50;99.90;;;;;;5028086;28;20477;-72
2021/10/21 01:36:21;;;;;;;11.27;7.60;;;14.20;99.90;;;;;;5019742;28;20207;-72
2021/10/21 01:38:46;;;;;;;11.40;8.10;;;14.00;99.90;;;;;;5018523;28;20187;-71
2021/10/21 01:41:12;;;;;;;9.87;8.30;;;14.30;99.90;;;;;;5030905;28;20194;-72
2021/10/21 01:43:44;;;;;;;9.37;8.47;;;14.10;99.90;;;;;;5029578;28;20195;-73
2021/10/21 01:46:10;;;;;;;7.97;7.27;;;14.00;99.90;;;;;;5026610;28;20557;-73
2021/10/21 01:48:36;;;;;;;7.23;6.53;;;14.20;99.90;;;;;;5011405;28;20492;-73
2021/10/21 01:51:03;;;;;;;10.40;7.37;;;14.30;99.90;;;;;;5030655;28;20278;-74
2021/10/21 01:53:28;;;;;;;8.47;7.10;;;14.40;99.90;;;;;;5020057;28;20806;-70
2021/10/21 01:55:54;;;;;;;6.97;6.00;;;14.10;99.90;;;;;;5026031;28;20533;-72
2021/10/21 01:58:19;;;;;;;9.20;7.20;;;14.10;99.90;;;;;;5016825;28;20214;-71
2021/10/21 02:00:45;;;;;;;7.60;6.90;;;14.10;99.90;;;;;;5019183;28;20187;-71
2021/10/21 02:03:10;;;;;;;7.67;6.87;;;14.10;99.90;;;;;;5010808;28;20195;-71
2021/10/21 02:05:36;;;;;;;7.50;6.30;;;14.20;99.90;;;;;;5011971;28;20230;-73
2021/10/21 02:08:02;;;;;;;7.03;5.67;;;14.20;99.90;;;;;;5015631;28;20190;-71
2021/10/21 02:10:27;;;;;;;6.47;5.87;;;14.30;99.90;;;;;;5017012;28;20226;-73
2021/10/21 02:12:53;;;;;;;6.37;5.77;;;14.00;99.90;;;;;;5030983;28;20183;-71
2021/10/21 02:15:19;;;;;;;7.60;6.07;;;14.20;99.90;;;;;;5028833;28;20191;-71
2021/10/21 02:17:45;;;;;;;6.17;5.63;;;14.10;99.90;;;;;;5030410;28;20270;-72
2021/10/21 02:20:12;;;;;;;5.67;4.97;;;14.00;99.90;;;;;;5019809;28;20313;-71
2021/10/21 02:22:39;;;;;;;6.13;4.23;;;14.10;99.90;;;;;;5011945;28;20431;-72
2021/10/21 02:25:07;;;;;;;6.33;5.60;;;14.20;99.90;;;;;;5028833;28;21736;-71
2021/10/21 02:27:33;;;;;;;6.43;5.83;;;14.30;99.90;;;;;;5030678;28;20468;-71
2021/10/21 02:29:59;;;;;;;5.33;4.87;;;14.10;99.90;;;;;;5022288;28;20549;-72
2021/10/21 02:32:24;;;;;;;5.80;5.20;;;14.20;99.90;;;;;;5019428;28;20184;-73
2021/10/21 02:34:50;;;;;;;5.90;5.27;;;14.40;99.90;;;;;;5010611;28;20438;-73
2021/10/21 02:37:16;;;;;;;5.40;4.90;;;14.40;99.90;;;;;;5023770;28;20646;-73
2021/10/21 02:39:41;;;;;;;6.10;5.30;;;14.20;99.90;;;;;;5020401;28;20285;-72
2021/10/21 02:42:07;;;;;;;6.13;5.53;;;14.40;99.90;;;;;;5019257;28;20183;-72
2021/10/21 02:44:32;;;;;;;6.27;5.70;;;14.30;99.90;;;;;;5010133;28;20188;-72
2021/10/21 02:46:58;;;;;;;6.03;5.30;;;14.20;99.90;;;;;;5011768;28;20670;-71
2021/10/21 02:49:24;;;;;;;5.90;5.40;;;14.30;99.90;;;;;;5013467;28;20224;-71
2021/10/21 02:51:49;;;;;;;6.50;5.67;;;14.40;99.90;;;;;;5020907;28;20726;-75
2021/10/21 02:54:15;;;;;;;7.80;6.90;;;14.40;99.90;;;;;;5024812;28;20441;-71
2021/10/21 02:56:40;;;;;;;7.90;6.13;;;14.30;99.90;;;;;;5028561;28;20187;-72
2021/10/21 02:59:06;;;;;;;6.00;5.40;;;14.40;99.90;;;;;;5015031;28;20187;-74
2021/10/21 03:01:31;;;;;;;9.37;5.50;;;14.40;99.90;;;;;;5010008;28;20184;-72
2021/10/21 03:03:58;;;;;;;6.77;5.47;;;14.50;99.90;;;;;;5017906;28;20179;-73
2021/10/21 03:06:24;;;;;;;5.77;5.20;;;14.60;99.90;;;;;;5029166;28;20603;-71
2021/10/21 03:08:49;;;;;;;5.93;5.30;;;14.60;99.90;;;;;;5027563;28;20970;-76
2021/10/21 03:11:15;;;;;;;6.53;5.40;;;14.40;99.90;;;;;;5030241;28;20179;-72
2021/10/21 03:13:40;;;;;;;5.07;4.70;;;14.30;99.90;;;;;;5022188;28;20206;-72
2021/10/21 03:16:06;;;;;;;7.63;6.83;;;14.40;99.90;;;;;;5009998;28;20226;-71
2021/10/21 03:18:31;;;;;;;6.47;5.63;;;14.30;99.90;;;;;;5017065;28;20187;-73
2021/10/21 03:20:57;;;;;;;6.23;5.50;;;14.40;99.90;;;;;;5029105;28;20194;-71
2021/10/21 03:23:25;;;;;;;5.53;5.10;;;14.20;99.90;;;;;;5019617;28;20200;-73
2021/10/21 03:25:51;;;;;;;4.67;4.17;;;14.30;99.90;;;;;;5010089;28;20188;-73
2021/10/21 03:28:17;;;;;;;4.27;3.80;;;14.30;99.90;;;;;;5017216;28;20468;-72
2021/10/21 03:30:42;;;;;;;3.73;3.43;;;14.50;99.90;;;;;;5028114;28;20454;-72
2021/10/21 03:33:08;;;;;;;3.93;3.17;;;14.50;99.90;;;;;;5028352;28;20218;-70
2021/10/21 03:35:33;;;;;;;3.77;3.47;;;14.40;99.90;;;;;;5013904;28;20199;-73
2021/10/21 03:37:59;;;;;;;3.30;3.00;;;14.30;99.90;;;;;;5015922;28;20531;-72
2021/10/21 03:40:24;;;;;;;3.20;2.90;;;14.50;99.90;;;;;;5027867;28;20230;-71
2021/10/21 03:42:50;;;;;;;3.10;2.90;;;14.40;99.90;;;;;;5029684;28;20541;-72
2021/10/21 03:45:15;;;;;;;2.70;2.50;;;14.30;99.90;;;;;;5018785;28;20184;-74
2021/10/21 03:47:41;;;;;;;3.00;2.63;;;14.30;99.90;;;;;;5041897;28;20249;-70
2021/10/21 03:50:07;;;;;;;2.60;2.40;;;14.30;99.90;;;;;;5018107;28;20311;-72
2021/10/21 03:52:33;;;;;;;2.80;2.50;;;13.90;99.90;;;;;;5020466;28;20677;-72
2021/10/21 03:54:59;;;;;;;2.70;2.50;;;14.00;99.90;;;;;;5019635;28;20445;-72
2021/10/21 03:57:24;;;;;;;2.07;1.87;;;14.00;99.90;;;;;;5028537;28;20442;-72
2021/10/21 03:59:50;;;;;;;2.53;1.70;;;14.00;99.90;;;;;;5013652;28;20278;-71
2021/10/21 04:02:16;;;;;;;2.37;2.17;;;14.00;99.90;;;;;;5014115;28;20203;-72
2021/10/21 04:04:42;;;;;;;3.23;1.97;;;13.90;99.90;;;;;;5025371;28;20482;-73
2021/10/21 04:07:07;;;;;;;4.20;2.20;;;13.70;99.90;;;;;;5014013;28;20235;-71
2021/10/21 04:09:33;;;;;;;3.23;1.80;;;13.60;99.90;;;;;;5029098;28;20215;-73
2021/10/21 04:11:58;;;;;;;1.97;1.80;;;13.60;99.90;;;;;;5031427;28;20202;-71
2021/10/21 04:14:24;;;;;;;2.17;1.97;;;13.60;99.90;;;;;;5018216;28;20231;-70
2021/10/21 04:16:49;;;;;;;1.80;1.70;;;13.60;99.90;;;;;;5025660;28;20225;-74
2021/10/21 04:19:15;;;;;;;2.13;1.93;;;13.50;99.90;;;;;;5035138;28;20195;-70
2021/10/21 04:21:40;;;;;;;1.90;1.67;;;13.40;99.90;;;;;;5021796;28;20673;-72
2021/10/21 04:24:06;;;;;;;1.73;1.63;;;13.40;99.90;;;;;;5027318;28;20643;-71
2021/10/21 04:26:31;;;;;;;1.70;1.60;;;13.30;99.90;;;;;;5018511;28;20455;-73
2021/10/21 04:28:57;;;;;;;1.60;1.50;;;13.40;99.90;;;;;;5030843;28;20224;-72
2021/10/21 04:31:23;;;;;;;1.93;1.50;;;13.00;99.90;;;;;;5032055;28;20199;-71
2021/10/21 04:33:48;;;;;;;2.80;1.57;;;13.10;99.90;;;;;;5028372;28;20246;-72
2021/10/21 04:36:14;;;;;;;1.33;1.23;;;13.00;99.90;;;;;;5026635;28;20188;-71
2021/10/21 04:38:39;;;;;;;1.73;1.63;;;12.80;99.90;;;;;;5027998;28;20187;-72
2021/10/21 04:41:05;;;;;;;1.70;1.60;;;13.00;99.90;;;;;;5032653;28;20206;-72
2021/10/21 04:43:31;;;;;;;1.20;1.10;;;12.90;99.90;;;;;;5030074;28;20660;-71
2021/10/21 04:45:56;;;;;;;1.30;1.20;;;12.80;99.90;;;;;;5014814;28;20184;-72
2021/10/21 04:48:22;;;;;;;1.57;1.37;;;12.70;99.90;;;;;;5014203;28;20196;-71
2021/10/21 04:50:47;;;;;;;1.20;1.10;;;12.70;99.90;;;;;;5012408;28;20595;-73
2021/10/21 04:53:13;;;;;;;0.93;0.93;;;12.60;99.90;;;;;;5016589;28;20293;-74
2021/10/21 04:55:39;;;;;;;2.17;1.30;;;12.60;99.90;;;;;;5030428;28;20357;-71
2021/10/21 04:58:05;;;;;;;2.10;0.90;;;12.40;99.90;;;;;;5027087;28;20481;-71
2021/10/21 05:00:32;;;;;;;1.77;1.13;;;12.70;99.90;;;;;;5026660;28;20655;-72
2021/10/21 05:03:14;;;;;;;2.37;1.20;;;12.60;99.90;;;;;;5029617;28;20445;-72
2021/10/21 05:05:40;;;;;;;1.95;0.90;;;12.30;99.90;;;;;;5013301;28;20490;-72
2021/10/21 05:08:06;;;;;;;3.40;0.88;;;12.70;99.90;;;;;;5017685;28;20197;-75
2021/10/21 05:10:32;;;;;;;3.23;1.03;;;12.40;99.90;;;;;;5021159;28;20309;-72
2021/10/21 05:12:58;;;;;;;3.17;1.13;;;12.20;99.90;;;;;;5032193;28;20452;-73
2021/10/21 05:15:23;;;;;;;1.80;1.37;;;12.30;99.90;;;;;;5028160;28;20183;-72
2021/10/21 05:17:50;;;;;;;2.30;1.00;;;12.60;99.90;;;;;;5025852;28;20651;-73
2021/10/21 05:20:16;;;;;;;2.20;1.40;;;12.30;99.90;;;;;;5013309;28;20468;-71
2021/10/21 05:22:42;;;;;;;3.97;1.30;;;12.00;99.90;;;;;;5021878;28;20192;-74
2021/10/21 05:25:08;;;;;;;1.73;1.40;;;12.30;97.70;;;;;;5025728;28;20438;-70
2021/10/21 05:27:36;;;;;;;2.05;1.90;;;12.50;97.80;;;;;;5026716;28;20254;-72
2021/10/21 05:30:03;;;;;;;3.27;1.10;;;12.20;99.90;;;;;;5030773;28;20741;-73
2021/10/21 05:32:28;;;;;;;3.97;1.30;;;12.00;99.90;;;;;;5030451;28;20446;-73
2021/10/21 05:34:54;;;;;;;0.80;0.80;;;12.10;99.90;;;;;;5020607;28;20445;-73
2021/10/21 05:37:19;;;;;;;1.23;1.10;;;12.20;99.90;;;;;;5025592;28;20184;-76
2021/10/21 05:39:45;;;;;;;2.60;1.17;;;12.30;99.90;;;;;;5013640;28;20192;-72
2021/10/21 05:42:10;;;;;;;2.20;1.20;;;12.20;99.90;;;;;;5024045;28;20175;-71
2021/10/21 05:44:36;;;;;;;1.40;1.17;;;12.30;99.90;;;;;;5023802;28;20237;-71
2021/10/21 05:47:02;;;;;;;2.13;1.40;;;12.40;99.90;;;;;;5031731;28;20680;-72
2021/10/21 05:49:28;;;;;;;5.35;1.30;;;12.40;99.70;;;;;;5027966;28;20276;-70
2021/10/21 05:51:53;;;;;;;2.10;1.13;;;12.30;96.80;;;;;;5034116;28;20190;-73
2021/10/21 05:54:19;;;;;;;3.23;1.50;;;12.30;96.40;;;;;;5012702;28;20577;-72
2021/10/21 05:56:45;;;;;;;1.50;1.40;;;12.50;96.00;;;;;;5017897;28;20191;-73
2021/10/21 05:59:10;;;;;;;1.70;1.00;;;12.40;97.40;;;;;;5020679;28;20196;-71
2021/10/21 06:01:36;;;;;;;3.50;1.43;;;12.10;94.70;;;;;;5033997;28;20487;-70
2021/10/21 06:04:02;;;;;;;2.70;1.30;;;12.20;96.30;;;;;;5051114;28;20712;-73
2021/10/21 06:06:31;;;;;;;1.90;1.03;;;12.40;97.50;;;;;;5043660;28;20260;-71
2021/10/21 06:08:57;;;;;;;4.30;1.30;;;12.20;97.30;;;;;;5025639;28;20225;-73
2021/10/21 06:11:23;;;;;;;1.80;1.20;;;12.00;95.10;;;;;;5031123;28;20433;-75
2021/10/21 06:13:58;;;;;;;2.70;1.10;;;12.20;95.10;;;;;;5032351;28;20182;-73
2021/10/21 06:16:23;;;;;;;3.63;1.33;;;12.30;94.30;;;;;;5026240;28;20538;-75
2021/10/21 06:18:49;;;;;;;3.20;1.20;;;12.10;95.70;;;;;;5024568;28;20469;-73
2021/10/21 06:21:21;;;;;;;2.20;1.00;;;12.40;96.50;;;;;;5020512;28;20724;-72
2021/10/21 06:23:47;;;;;;;3.60;1.50;;;12.10;95.10;;;;;;5034498;28;20294;-74
2021/10/21 06:26:13;;;;;;;2.17;1.20;;;12.70;95.80;;;;;;5032981;28;20602;-74
2021/10/21 06:28:40;;;;;;;2.25;0.85;;;12.30;95.30;;;;;;5026773;28;20223;-71
2021/10/21 06:31:05;;;;;;;2.42;0.88;;;12.20;96.50;;;;;;5032753;28;20205;-74
2021/10/21 06:33:31;;;;;;;3.50;1.73;;;12.10;94.20;;;;;;5023606;28;20184;-74
2021/10/21 06:36:00;;;;;;;1.40;0.93;;;12.10;93.80;;;;;;5019427;28;20512;-73
2021/10/21 06:38:27;;;;;;;2.33;1.25;;;12.10;93.50;;;;;;5025594;28;20286;-74
2021/10/21 06:40:53;;;;;;;1.40;1.20;;;12.30;92.60;;;;;;5030278;28;20209;-72
2021/10/21 06:43:18;;;;;;;5.77;1.50;;;12.30;92.60;;;;;;5043758;28;20442;-73
2021/10/21 06:45:44;;;;;;;1.53;1.07;;;12.10;92.10;;;;;;5013056;28;20222;-71
2021/10/21 06:48:09;;;;;;;1.83;1.20;;;12.30;93.10;;;;;;5016545;28;20205;-72
2021/10/21 06:50:35;;;;;;;1.23;0.80;;;12.30;91.30;;;;;;5011766;28;20230;-71
2021/10/21 06:53:00;;;;;;;6.70;1.67;;;12.10;90.20;;;;;;5015732;28;20191;-72
2021/10/21 06:55:26;;;;;;;2.23;1.40;;;12.30;89.20;;;;;;5032517;28;20804;-74
2021/10/21 06:57:54;;;;;;;4.27;1.50;;;12.60;90.70;;;;;;5022149;28;20665;-73
2021/10/21 07:00:20;;;;;;;4.83;2.30;;;12.30;86.80;;;;;;5025617;28;20194;-73
2021/10/21 07:02:46;;;;;;;2.37;1.20;;;12.80;89.30;;;;;;5029062;28;20973;-72
2021/10/21 07:05:13;;;;;;;7.83;1.13;;;12.50;84.60;;;;;;5026700;28;20229;-73
2021/10/21 07:07:39;;;;;;;5.17;1.10;;;12.60;83.00;;;;;;5024572;28;20541;-73
2021/10/21 07:10:06;;;;;;;4.00;1.07;;;12.90;83.60;;;;;;5010488;28;20486;-75
2021/10/21 07:12:32;;;;;;;3.47;1.13;;;12.80;81.90;;;;;;5021816;28;20504;-72
2021/10/21 07:14:58;;;;;;;1.97;1.10;;;13.00;82.30;;;;;;5017257;28;20522;-72
2021/10/21 07:17:24;;;;;;;2.10;1.27;;;13.30;81.80;;;;;;5011361;28;20439;-73
2021/10/21 07:19:50;;;;;;;2.00;1.27;;;13.30;82.20;;;;;;5033172;28;20434;-73
2021/10/21 07:22:16;;;;;;;1.50;0.93;;;13.50;79.30;;;;;;5033702;28;20236;-73
2021/10/21 07:24:43;;;;;;;2.50;1.47;;;13.40;78.00;;;;;;5031529;28;20277;-75
2021/10/21 07:27:09;;;;;;;1.20;0.70;;;13.30;77.70;;;;;;5029841;28;20437;-74
2021/10/21 07:29:35;;;;;;;2.70;1.10;;;13.50;76.80;;;;;;5030344;28;20887;-73
2021/10/21 07:32:01;;;;;;;3.30;1.07;;;13.60;81.20;;;;;;5030649;28;21018;-76
2021/10/21 07:34:27;;;;;;;2.67;1.00;;;13.70;78.10;;;;;;5028669;28;20271;-76
2021/10/21 07:36:53;;;;;;;5.23;1.37;;;13.60;78.10;;;;;;5048721;28;20434;-75
2021/10/21 07:39:21;;;;;;;1.80;1.17;;;14.20;75.60;;;;;;5033582;28;20893;-75
2021/10/21 07:41:48;;;;;;;2.50;1.03;;;14.10;74.20;;;;;;5034588;28;20504;-74
2021/10/21 07:44:13;;;;;;;4.37;1.67;;;14.00;72.30;;;;;;5028657;28;20434;-73
2021/10/21 07:46:41;;;;;;;1.97;1.00;;;14.30;73.70;;;;;;5033962;28;20445;-74
2021/10/21 07:49:07;;;;;;;1.53;0.97;;;14.20;72.80;;;;;;5042575;28;20223;-73
2021/10/21 07:51:34;;;;;;;2.70;0.73;;;14.10;69.60;;;;;;5024064;28;20481;-75
2021/10/21 07:54:00;;;;;;;1.17;0.70;;;14.30;68.90;;;;;;5031126;28;20206;-76
2021/10/21 07:56:27;;;;;;;1.80;0.63;;;14.50;69.10;;;;;;5018838;28;20453;-71
2021/10/21 07:58:52;;;;;;;5.00;0.80;;;14.40;69.70;;;;;;5031925;28;20453;-74
2021/10/21 08:01:18;;;;;;;3.93;1.20;;;14.60;67.10;;;;;;5020372;28;20493;-72
2021/10/21 08:03:43;;;;;;;4.43;1.10;;;14.70;71.60;;;;;;5017658;28;20647;-73
2021/10/21 08:06:09;;;;;;;1.80;1.33;;;14.90;69.10;;;;;;5025806;28;20358;-75
2021/10/21 08:08:34;;;;;;;1.50;0.60;;;15.20;65.50;;;;;;5024377;28;20205;-74
2021/10/21 08:11:00;;;;;;;2.03;0.70;;;15.20;66.60;;;;;;5021284;28;20294;-71
2021/10/21 08:13:25;;;;;;;1.23;0.80;;;15.30;64.60;;;;;;5019963;28;20192;-73
2021/10/21 08:15:51;;;;;;;1.10;0.90;;;15.30;64.50;;;;;;5021041;28;20183;-73
2021/10/21 08:18:17;;;;;;;2.33;0.87;;;15.40;63.90;;;;;;5011856;28;20629;-73
2021/10/21 08:20:44;;;;;;;1.97;1.13;;;15.40;63.90;;;;;;5014325;28;20656;-72
2021/10/21 08:23:10;;;;;;;0.97;0.70;;;15.80;63.10;;;;;;5016485;28;21053;-73
2021/10/21 08:25:35;;;;;;;1.23;0.70;;;15.90;60.20;;;;;;5016436;28;20518;-73
2021/10/21 08:28:01;;;;;;;1.27;0.60;;;16.20;58.80;;;;;;5031667;28;20508;-74
2021/10/21 08:30:27;;;;;;;1.00;0.70;;;16.00;62.80;;;;;;5024801;28;20215;-73
2021/10/21 08:32:56;;;;;;;4.27;0.77;;;16.00;59.80;;;;;;5028642;28;20637;-73
2021/10/21 08:35:23;;;;;;;1.53;0.80;;;16.90;61.00;;;;;;5019436;28;20477;-74
2021/10/21 08:37:49;;;;;;;2.87;0.70;;;17.20;58.90;;;;;;5027363;28;20442;-70
2021/10/21 08:40:16;;;;;;;1.23;0.70;;;17.50;55.10;;;;;;5019941;28;20443;-71
2021/10/21 08:42:43;;;;;;;2.40;0.80;;;17.50;56.00;;;;;;5023310;28;20191;-72
2021/10/21 08:45:09;;;;;;;0.77;0.77;;;18.10;54.10;;;;;;5023220;28;20443;-73
2021/10/21 08:47:45;;;;;;;0.90;0.90;;;18.70;53.80;;;;;;5024641;28;20509;-74
2021/10/21 08:50:13;;;;;;;1.37;0.87;;;18.40;52.30;;;;;;5014598;28;20945;-71
2021/10/21 08:52:39;;;;;;;2.63;1.90;;;17.50;52.10;;;;;;5017623;28;20528;-72
2021/10/21 08:55:05;;;;;;;2.23;0.90;;;17.40;52.80;;;;;;5017470;28;20853;-72
2021/10/21 08:57:31;;;;;;;0.50;0.50;;;16.90;54.40;;;;;;5028681;28;20916;-73
2021/10/21 08:59:57;;;;;;;2.20;1.07;;;16.70;56.80;;;;;;5018050;28;20591;-71
2021/10/21 09:02:33;;;;;;;1.03;0.80;;;16.00;57.40;;;;;;5039624;28;20924;-73
2021/10/21 09:05:13;;;;;;;0.70;0.70;;;15.40;60.20;;;;;;5021508;28;20184;-72
2021/10/21 09:10:23;;;;;;;0.53;0.53;;;16.30;62.50;;;;;;5022674;28;20848;-72
2021/10/21 09:12:50;;;;;;;0.70;0.70;;;16.50;60.20;;;;;;5016704;28;20522;-72
2021/10/21 09:15:23;;;;;;;1.17;0.77;;;17.00;59.50;;;;;;5030067;28;20951;-72
2021/10/21 09:17:49;;;;;;;0.57;0.57;;;18.00;58.50;;;;;;5024396;28;20441;-72
2021/10/21 09:20:19;;;;;;;0.67;0.67;;;18.60;55.30;;;;;;5021419;28;20436;-73
2021/10/21 09:22:55;;;;;;;1.43;0.70;;;19.50;53.80;;;;;;5022979;28;20440;-73
2021/10/21 09:25:26;;;;;;;0.70;0.70;;;20.40;52.90;;;;;;5021844;28;21223;-72
2021/10/21 09:27:52;;;;;;;2.93;1.00;;;21.50;50.90;;;;;;5020408;28;20957;-73
2021/10/21 09:30:29;;;;;;;0.93;0.70;;;22.40;47.80;;;;;;5026881;28;20543;-69
2021/10/21 09:33:01;;;;;;;0.50;0.50;;;22.60;45.50;;;;;;5012545;28;20195;-72
2021/10/21 09:35:27;;;;;;;1.30;0.83;;;23.10;45.60;;;;;;5020282;28;20432;-74
2021/10/21 09:37:56;;;;;;;1.20;0.80;;;23.40;44.20;;;;;;5011044;28;20498;-73
2021/10/21 09:40:29;;;;;;;1.43;0.70;;;23.90;43.90;;;;;;5015831;28;20187;-73
2021/10/21 09:43:05;;;;;;;0.50;0.50;;;24.30;42.40;;;;;;5018510;28;20435;-75
2021/10/21 09:45:41;;;;;;;1.07;0.80;;;24.70;41.40;;;;;;5025756;28;20541;-76
2021/10/21 09:48:08;;;;;;;1.63;0.60;;;24.90;39.70;;;;;;5016531;28;20488;-74
2021/10/21 09:50:45;;;;;;;0.80;0.73;;;24.80;39.30;;;;;;5011459;28;20487;-73
2021/10/21 09:53:40;;;;;;;1.13;0.83;;;25.60;39.50;;;;;;5021132;28;20538;-75
2021/10/21 09:56:08;;;;;;;0.60;0.50;;;26.40;37.40;;;;;;5025985;28;20460;-74
2021/10/21 09:58:41;;;;;;;0.80;0.73;;;26.60;37.50;;;;;;5028425;28;20448;-72
2021/10/21 10:01:12;;;;;;;0.60;0.60;;;26.30;35.70;;;;;;5018792;28;20437;-74
2021/10/21 10:03:41;;;;;;;0.43;0.40;;;26.20;35.40;;;;;;5011027;28;20542;-72
2021/10/21 10:06:07;;;;;;;0.60;0.50;;;25.60;36.90;;;;;;5010898;28;20539;-73
2021/10/21 10:08:33;;;;;;;0.80;0.80;;;25.00;36.90;;;;;;5016846;28;20691;-74
2021/10/21 10:11:08;;;;;;;1.23;0.60;;;23.90;37.20;;;;;;5025344;28;20181;-72
2021/10/21 10:13:34;;;;;;;1.70;0.80;;;23.90;38.50;;;;;;5024847;28;20448;-76
2021/10/21 10:15:59;;;;;;;1.47;0.63;;;23.00;39.20;;;;;;5030183;28;20420;-73
2021/10/21 10:18:28;;;;;;;0.63;0.60;;;23.10;39.90;;;;;;5028745;28;20452;-74
2021/10/21 10:21:18;;;;;;;0.50;0.50;;;23.40;40.00;;;;;;5027159;28;20550;-73
2021/10/21 10:23:53;;;;;;;0.60;0.60;;;24.30;39.40;;;;;;5042046;28;20432;-73
2021/10/21 10:26:44;;;;;;;0.70;0.63;;;25.00;37.40;;;;;;5026245;28;20449;-73
2021/10/21 10:29:12;;;;;;;0.63;0.63;;;26.20;37.10;;;;;;5015591;28;20913;-74
2021/10/21 10:31:38;;;;;;;0.60;0.60;;;27.20;35.40;;;;;;5028740;28;20502;-74
2021/10/21 10:34:04;;;;;;;0.70;0.50;;;27.70;32.70;;;;;;5025406;28;20437;-75
2021/10/21 10:36:32;;;;;;;0.57;0.57;;;27.80;32.00;;;;;;5016775;28;20511;-74
2021/10/21 10:39:07;;;;;;;0.60;0.60;;;27.20;31.00;;;;;;5011292;28;20197;-72
2021/10/21 10:41:42;;;;;;;0.80;0.70;;;26.20;32.30;;;;;;5009961;28;20437;-73
2021/10/21 10:44:32;;;;;;;1.10;0.60;;;26.00;33.80;;;;;;5013133;28;20438;-73
2021/10/21 10:46:57;;;;;;;1.33;0.83;;;26.60;34.00;;;;;;5032743;28;20452;-71
2021/10/21 10:49:38;;;;;;;1.63;0.70;;;26.70;31.20;;;;;;5036390;28;20476;-73
2021/10/21 10:52:12;;;;;;;1.13;0.90;;;27.70;31.30;;;;;;5014838;28;20195;-72
2021/10/21 10:54:46;;;;;;;0.93;0.77;;;28.20;31.40;;;;;;5021711;28;20436;-73
2021/10/21 10:57:18;;;;;;;0.97;0.60;;;28.80;29.80;;;;;;5029503;28;21025;-74
2021/10/21 10:59:45;;;;;;;3.00;0.80;;;29.10;29.10;;;;;;5028444;28;20426;-72
2021/10/21 11:02:24;;;;;;;0.67;0.67;;;29.40;29.30;;;;;;5041045;28;20447;-74
2021/10/21 11:04:55;;;;;;;1.90;0.90;;;29.60;28.80;;;;;;5028327;28;20454;-76
2021/10/21 11:07:22;;;;;;;1.07;0.60;;;29.80;27.90;;;;;;5046122;28;20464;-76
2021/10/21 11:09:49;;;;;;;1.33;0.90;;;30.20;27.60;;;;;;5053561;28;20570;-75
2021/10/21 11:12:25;;;;;;;0.73;0.73;;;30.20;27.10;;;;;;5053742;28;20441;-73
2021/10/21 11:14:55;;;;;;;0.97;0.97;;;30.30;27.00;;;;;;5021395;28;20443;-73
2021/10/21 11:17:41;;;;;;;0.70;0.70;;;30.30;26.80;;;;;;5017761;28;20438;-74
2021/10/21 11:20:28;;;;;;;0.67;0.67;;;30.40;26.70;;;;;;5031898;28;20449;-73
2021/10/21 11:22:55;;;;;;;1.53;0.70;;;30.70;26.40;;;;;;5028233;28;20458;-72
2021/10/21 11:25:26;;;;;;;2.60;0.70;;;31.10;25.90;;;;;;5044046;28;20441;-73
2021/10/21 11:27:55;;;;;;;1.27;0.87;;;30.20;24.50;;;;;;5026108;28;20842;-75
2021/10/21 11:30:27;;;;;;;1.90;0.90;;;29.50;25.80;;;;;;5024565;28;20577;-74
2021/10/21 11:32:54;;;;;;;1.23;0.87;;;29.20;25.90;;;;;;5025002;28;20475;-71
2021/10/21 11:35:27;;;;;;;1.70;0.80;;;29.30;26.20;;;;;;5029136;28;20522;-73
2021/10/21 11:37:57;;;;;;;0.70;0.60;;;29.30;25.50;;;;;;5031398;28;20442;-74
2021/10/21 11:40:35;;;;;;;0.67;0.63;;;29.00;25.80;;;;;;5033086;28;20434;-72
2021/10/21 11:43:41;;;;;;;1.20;1.10;;;28.60;26.50;;;;;;5021220;28;20468;-72
2021/10/21 11:46:11;;;;;;;0.70;0.70;;;28.90;26.40;;;;;;5020845;28;20819;-73
2021/10/21 11:48:39;;;;;;;2.20;0.97;;;29.50;26.90;;;;;;5032134;28;20469;-73
2021/10/21 11:51:09;;;;;;;0.70;0.63;;;30.00;27.10;;;;;;5033726;28;20965;-75
2021/10/21 11:53:34;;;;;;;2.40;0.70;;;30.90;26.80;;;;;;5036386;28;20460;-75
2021/10/21 11:56:01;;;;;;;1.80;0.70;;;31.70;25.20;;;;;;5053141;28;20441;-74
2021/10/21 11:58:34;;;;;;;0.70;0.70;;;31.70;24.20;;;;;;5025916;28;20524;-73
2021/10/21 12:01:03;;;;;;;2.33;0.70;;;31.20;23.90;;;;;;5023202;28;20444;-74
2021/10/21 12:03:34;;;;;;;1.73;1.13;;;30.50;24.60;;;;;;5030815;28;20440;-71
2021/10/21 12:05:59;;;;;;;1.43;0.70;;;30.20;25.20;;;;;;5032145;28;20485;-74
2021/10/21 12:08:26;;;;;;;1.23;1.00;;;29.70;25.80;;;;;;5030811;28;20445;-72
2021/10/21 12:11:02;;;;;;;1.50;1.40;;;29.70;26.10;;;;;;5031944;28;20808;-74
2021/10/21 12:13:36;;;;;;;1.57;0.60;;;29.70;25.70;;;;;;5030511;28;20428;-75
2021/10/21 12:16:10;;;;;;;1.40;0.80;;;29.70;25.20;;;;;;5020937;28;20447;-73
2021/10/21 12:18:36;;;;;;;1.53;0.80;;;28.50;25.90;;;;;;5031432;28;20499;-74
2021/10/21 12:21:06;;;;;;;1.00;0.90;;;27.50;26.50;;;;;;5035148;28;20467;-74
2021/10/21 12:23:50;;;;;;;0.97;0.93;;;28.10;27.20;;;;;;5052942;28;20444;-74
2021/10/21 12:26:40;;;;;;;1.93;1.83;;;28.20;27.30;;;;;;5040084;28;20434;-72
2021/10/21 12:29:10;;;;;;;1.13;0.63;;;29.10;27.30;;;;;;5026952;28;20541;-73
2021/10/21 12:31:38;;;;;;;4.67;1.10;;;30.00;26.20;;;;;;5027294;28;20527;-74
2021/10/21 12:34:20;;;;;;;0.60;0.60;;;30.20;25.20;;;;;;5028888;28;20430;-73
2021/10/21 12:36:48;;;;;;;0.63;0.60;;;29.80;24.70;;;;;;5032487;28;20446;-73
2021/10/21 12:39:17;;;;;;;0.80;0.80;;;29.90;25.70;;;;;;5023663;28;20972;-71
2021/10/21 12:41:58;;;;;;;0.93;0.77;;;30.10;25.00;;;;;;5038337;28;20452;-73
2021/10/21 12:44:26;;;;;;;1.97;0.80;;;29.60;25.40;;;;;;5029628;28;20476;-72
2021/10/21 12:47:09;;;;;;;0.50;0.50;;;29.50;25.80;;;;;;5050037;28;20452;-73
2021/10/21 12:49:35;;;;;;;0.87;0.70;;;29.60;25.60;;;;;;5026303;28;21045;-73
2021/10/21 12:52:11;;;;;;;0.73;0.67;;;28.40;26.30;;;;;;5034759;28;20800;-73